High Glow — 3EAV5 — position and weather

sailwx.info

Track history (hours):
 
Tides and Currents Weather Stations Pressure Air Temp Water Temp Dewpoint Dewpoint Depression Visibility Wind Speed Wind Dir Waves Ship Positions

High Glow

Last reported at 2017-Jun-28 22:48 UTC. Time now 2017-Jun-29 07:28 UTC.
Position N 40°39' W 074°07'.

Length 180 m; draft 10 m.

Type: Ship. MMSI: 371179000.

Date/timePositionNaut miles runAvg speedWind from/ knotsBaromVisibWave heightAir tempDewpointWater temp
2017-Jun-28 22:48N 40°39' W 074°07'0 0.0
2017-Jun-28 21:42N 40°39' W 074°07'0 0.0
2017-Jun-28 21:30N 40°39' W 074°07'0 0.0
2017-Jun-28 20:51N 40°39' W 074°07'0 0.0
2017-Jun-28 20:30N 40°39' W 074°07'0 0.0
2017-Jun-28 20:00N 40°39' W 074°07'0 0.0
2017-Jun-28 19:30N 40°39' W 074°07'0 0.0
2017-Jun-28 19:00N 40°39' W 074°07'0 0.0
2017-Jun-28 18:30N 40°39' W 074°07'0 0.0
2017-Jun-28 18:00N 40°39' W 074°07'0 0.0
2017-Jun-28 17:30N 40°39' W 074°07'0 0.0
2017-Jun-28 17:00N 40°39' W 074°07'0 0.3
2017-Jun-28 16:30N 40°39' W 074°07'2 4.1
2017-Jun-28 16:00N 40°39' W 074°04'5 9.2
2017-Jun-28 15:31N 40°34' W 074°02'4 8.1
2017-Jun-28 15:00N 40°31' W 073°59'611.9
2017-Jun-28 14:30N 40°28' W 073°52'5 5.0
2017-Jun-28 13:30N 40°25' W 073°48'1 1.1
2017-Jun-28 13:00N 40°24' W 073°47'2 3.2
2017-Jun-28 12:29N 40°22' W 073°47'2 3.5
2017-Jun-28 12:00N 40°21' W 073°46'2 3.4
2017-Jun-28 11:30N 40°19' W 073°46'2 3.2
2017-Jun-28 10:46N 40°17' W 073°46'1 3.9
2017-Jun-28 10:30N 40°16' W 073°45'30 6.1
2017-Jun-28 05:32N 39°46' W 073°41'413.2
2017-Jun-28 05:16N 39°42' W 073°42'413.2
2017-Jun-28 04:56N 39°38' W 073°43'613.2
2017-Jun-28 04:28N 39°32' W 073°45'813.5
2017-Jun-28 03:54N 39°25' W 073°47'513.5
2017-Jun-28 03:30N 39°19' W 073°48'6610.7
2017-Jun-27 21:20N 38°47' W 075°03'411.3
2017-Jun-27 21:00N 38°51' W 075°05'612.8
2017-Jun-27 20:31N 38°57' W 075°06'714.5
2017-Jun-27 20:01N 39°03' W 075°10'713.8
2017-Jun-27 19:30N 39°09' W 075°15'713.0
2017-Jun-27 19:00N 39°15' W 075°19'612.2
2017-Jun-27 18:30N 39°19' W 075°24'611.7
2017-Jun-27 18:00N 39°24' W 075°29'510.9
2017-Jun-27 17:30N 39°28' W 075°34'5 9.6
2017-Jun-27 17:00N 39°33' W 075°33'4 8.7
2017-Jun-27 16:30N 39°37' W 075°35'5 9.1
2017-Jun-27 16:01N 39°41' W 075°31'5 9.8
2017-Jun-27 15:30N 39°45' W 075°29'5 9.5
2017-Jun-27 15:00N 39°48' W 075°25'1 0.5
2017-Jun-27 14:00N 39°49' W 075°24'0 0.0
2017-Jun-27 13:30N 39°49' W 075°24'0 0.0
2017-Jun-27 13:00N 39°49' W 075°24'0 0.0
2017-Jun-27 12:30N 39°49' W 075°24'0 0.0
2017-Jun-27 12:00N 39°49' W 075°24'0 0.0
2017-Jun-27 11:30N 39°49' W 075°24'0 0.0
2017-Jun-27 11:00N 39°49' W 075°24'0 0.0
2017-Jun-27 10:27N 39°49' W 075°24'0 0.0
2017-Jun-27 10:00N 39°49' W 075°24'0 0.0
2017-Jun-27 09:30N 39°49' W 075°24'0 0.0
2017-Jun-27 09:00N 39°49' W 075°24'0 0.0
2017-Jun-27 08:30N 39°49' W 075°24'0 0.0
2017-Jun-27 08:00N 39°49' W 075°24'0 0.0
2017-Jun-27 07:27N 39°49' W 075°24'0 0.0
2017-Jun-27 06:54N 39°49' W 075°24'0 0.0
2017-Jun-27 06:30N 39°49' W 075°24'0 0.0
2017-Jun-27 05:57N 39°49' W 075°24'0 0.0
2017-Jun-27 05:29N 39°49' W 075°24'0 0.0
2017-Jun-27 05:00N 39°49' W 075°24'0 0.0
2017-Jun-27 04:30N 39°49' W 075°24'0 0.0
2017-Jun-27 04:00N 39°49' W 075°24'0 0.0
2017-Jun-27 03:30N 39°49' W 075°24'0 0.0
2017-Jun-27 02:57N 39°49' W 075°24'0 0.0
2017-Jun-27 02:30N 39°49' W 075°24'0 0.0
2017-Jun-27 02:00N 39°49' W 075°24'0 0.0
2017-Jun-27 01:30N 39°49' W 075°24'0 0.0
2017-Jun-27 01:00N 39°49' W 075°24'0 0.0
2017-Jun-27 00:30N 39°49' W 075°24'0 0.0
2017-Jun-27 00:00N 39°49' W 075°24'0 0.0
2017-Jun-26 23:30N 39°49' W 075°24'0 0.0
2017-Jun-26 23:00N 39°49' W 075°24'0 0.0
2017-Jun-26 22:30N 39°49' W 075°24'0 0.0
2017-Jun-26 22:00N 39°49' W 075°24'0 0.0
2017-Jun-26 21:30N 39°49' W 075°24'0 0.0
2017-Jun-26 21:00N 39°49' W 075°24'0 0.0
2017-Jun-26 20:30N 39°49' W 075°24'0 0.0
2017-Jun-26 20:00N 39°49' W 075°24'0 0.0
2017-Jun-26 19:30N 39°49' W 075°24'0 0.0
2017-Jun-26 19:00N 39°49' W 075°24'0 0.0
2017-Jun-26 18:30N 39°49' W 075°24'0 0.0
2017-Jun-26 18:00N 39°49' W 075°24'0 0.0
2017-Jun-26 17:30N 39°49' W 075°24'0 0.0
2017-Jun-26 17:00N 39°49' W 075°24'0 0.0
2017-Jun-26 16:30N 39°49' W 075°24'0 0.0
2017-Jun-26 16:00N 39°49' W 075°24'0 0.0
2017-Jun-26 15:30N 39°49' W 075°24'0 0.0
2017-Jun-26 15:00N 39°49' W 075°24'0 0.0
2017-Jun-26 14:30N 39°49' W 075°24'0 0.0
2017-Jun-26 13:30N 39°49' W 075°24'0 0.0
2017-Jun-26 12:54N 39°49' W 075°24'0 0.0
2017-Jun-26 12:30N 39°49' W 075°24'0 0.0
2017-Jun-26 11:57N 39°49' W 075°24'0 0.0
2017-Jun-26 11:30N 39°49' W 075°24'0 0.0
2017-Jun-26 10:57N 39°49' W 075°24'0 0.0
2017-Jun-26 10:30N 39°49' W 075°24'0 0.0
2017-Jun-26 10:00N 39°49' W 075°24'0 0.0
2017-Jun-26 09:30N 39°49' W 075°24'0 0.0
2017-Jun-26 09:00N 39°49' W 075°24'0 0.0
2017-Jun-26 08:30N 39°49' W 075°24'0 0.0
2017-Jun-26 08:00N 39°49' W 075°24'0 0.0
2017-Jun-26 07:30N 39°49' W 075°24'0 0.0
2017-Jun-26 07:00N 39°49' W 075°24'0 0.0
2017-Jun-26 06:30N 39°49' W 075°24'0 0.0
2017-Jun-26 06:00N 39°49' W 075°24'0 0.0
2017-Jun-26 05:30N 39°49' W 075°24'0 0.0
2017-Jun-26 05:00N 39°49' W 075°24'0 0.0
2017-Jun-26 04:27N 39°49' W 075°24'0 0.0
2017-Jun-26 04:00N 39°49' W 075°24'0 0.0
2017-Jun-26 03:30N 39°49' W 075°24'0 0.0
2017-Jun-26 03:00N 39°49' W 075°24'0 0.0
2017-Jun-26 02:30N 39°49' W 075°24'0 0.0
2017-Jun-26 02:00N 39°49' W 075°24'0 0.0
2017-Jun-26 01:30N 39°49' W 075°24'0 0.0
2017-Jun-26 01:00N 39°49' W 075°24'0 0.0
2017-Jun-26 00:30N 39°49' W 075°24'0 0.0
2017-Jun-26 00:00N 39°49' W 075°24'0 0.0
2017-Jun-25 23:30N 39°49' W 075°24'0 0.0
2017-Jun-25 23:00N 39°49' W 075°24'0 0.0
2017-Jun-25 22:30N 39°49' W 075°24'0 0.0
2017-Jun-25 22:00N 39°49' W 075°24'0 0.0
2017-Jun-25 21:30N 39°49' W 075°24'0 0.0
2017-Jun-25 21:00N 39°49' W 075°24'0 0.0
2017-Jun-25 20:30N 39°49' W 075°24'0 0.0
2017-Jun-25 20:00N 39°49' W 075°24'0 0.0
2017-Jun-25 19:30N 39°49' W 075°24'0 0.0
2017-Jun-25 19:00N 39°49' W 075°24'0 0.0
2017-Jun-25 18:30N 39°49' W 075°24'0 0.0
2017-Jun-25 18:00N 39°49' W 075°24'0 0.0
2017-Jun-25 17:30N 39°49' W 075°24'0 0.0
2017-Jun-25 17:00N 39°49' W 075°24'0 0.0
2017-Jun-25 16:30N 39°49' W 075°24'0 0.0
2017-Jun-25 16:00N 39°49' W 075°24'0 0.0
2017-Jun-25 15:30N 39°49' W 075°24'0 0.0
2017-Jun-25 15:00N 39°49' W 075°24'0 0.0
2017-Jun-25 14:00N 39°49' W 075°24'0 0.0
2017-Jun-25 13:30N 39°49' W 075°24'0 0.0
2017-Jun-25 13:00N 39°49' W 075°24'0 0.0
2017-Jun-25 12:30N 39°49' W 075°24'0 0.0
2017-Jun-25 12:00N 39°49' W 075°24'0 0.0
2017-Jun-25 11:30N 39°49' W 075°24'0 0.0
2017-Jun-25 11:00N 39°49' W 075°24'0 0.0
2017-Jun-25 10:30N 39°49' W 075°24'0 0.0
2017-Jun-25 10:00N 39°49' W 075°24'0 0.7
2017-Jun-25 09:30N 39°48' W 075°24'2 4.5
2017-Jun-25 09:01N 39°47' W 075°27'4 7.4
2017-Jun-25 08:30N 39°44' W 075°30'510.2
2017-Jun-25 08:00N 39°40' W 075°32'5 9.9
2017-Jun-25 07:30N 39°35' W 075°33'611.4
2017-Jun-25 07:01N 39°29' W 075°34'611.9
2017-Jun-25 06:30N 39°24' W 075°30'612.5
2017-Jun-25 06:00N 39°19' W 075°24'612.8
2017-Jun-25 05:31N 39°15' W 075°19'612.8
2017-Jun-25 05:01N 39°09' W 075°15'712.9
2017-Jun-25 04:30N 39°03' W 075°10'612.7
2017-Jun-25 04:00N 38°58' W 075°07'613.0
2017-Jun-25 03:30N 38°52' W 075°04'5 9.8
2017-Jun-25 03:00N 38°47' W 075°01'3 5.1
2017-Jun-25 02:30N 38°48' W 074°57'2 4.3
2017-Jun-25 02:00N 38°48' W 074°55'2 4.8
2017-Jun-25 01:30N 38°48' W 074°51'3 6.2
2017-Jun-25 01:00N 38°48' W 074°47'4 7.3
2017-Jun-25 00:30N 38°48' W 074°43'4 7.5
2017-Jun-25 00:00N 38°49' W 074°38'4 8.3
2017-Jun-24 23:29N 38°49' W 074°32'121 3.2
2017-Jun-23 10:02N 39°55' W 072°22'0 0.3
2017-Jun-23 08:26N 39°55' W 072°22'5 0.6
2017-Jun-23 00:05N 39°54' W 072°28'0 1.0
2017-Jun-23 00:00N 39°54' W 072°28'1 1.1
2017-Jun-22 23:25N 39°53' W 072°29'1 0.9
2017-Jun-22 21:58N 39°52' W 072°30'0 0.9
2017-Jun-22 21:28N 39°52' W 072°30'0 0.9
2017-Jun-22 20:57N 39°52' W 072°31'0 0.7
2017-Jun-22 20:26N 39°51' W 072°31'0 0.8
2017-Jun-22 19:59N 39°51' W 072°31'0 0.9
2017-Jun-22 19:30N 39°50' W 072°31'0 0.8
2017-Jun-22 19:00N 39°50' W 072°31'0 0.7
2017-Jun-22 18:30N 39°50' W 072°31'1 0.6
2017-Jun-22 16:53N 39°49' W 072°30'0 0.3
2017-Jun-22 15:57N 39°49' W 072°30'0 0.0
2017-Jun-22 14:47N 39°49' W 072°30'0 0.2
2017-Jun-22 13:53N 39°49' W 072°30'0 0.2
2017-Jun-22 13:30N 39°49' W 072°30'0 0.4
2017-Jun-22 12:55N 39°49' W 072°30'1 0.5
2017-Jun-22 10:43N 39°49' W 072°32'0 0.6
2017-Jun-22 10:27N 39°49' W 072°32'0 0.6
2017-Jun-22 10:00N 39°49' W 072°32'0 0.6
2017-Jun-22 09:30N 39°49' W 072°33'0 0.5
2017-Jun-22 09:00N 39°49' W 072°33'0 0.5
2017-Jun-22 08:27N 39°49' W 072°33'2 0.7
2017-Jun-22 05:20N 39°50' W 072°36'0 1.3
2017-Jun-22 04:59N 39°50' W 072°37'1 1.4
2017-Jun-22 04:30N 39°50' W 072°38'2 1.6
2017-Jun-22 03:26N 39°50' W 072°40'1 1.9
2017-Jun-22 02:51N 39°50' W 072°41'1 2.1
2017-Jun-22 02:31N 39°51' W 072°42'1 2.2
2017-Jun-22 01:59N 39°51' W 072°44'7 2.1
2017-Jun-21 22:39N 39°52' W 072°53'0 2.0
2017-Jun-21 22:29N 39°52' W 072°53'6 1.8
2017-Jun-21 19:17N 39°52' W 073°01'1 1.5
2017-Jun-21 18:56N 39°52' W 073°01'1 1.4
2017-Jun-21 18:22N 39°52' W 073°02'1 1.4
2017-Jun-21 17:57N 39°51' W 073°03'1 1.3
2017-Jun-21 17:29N 39°51' W 073°03'0 0.8
2017-Jun-21 16:59N 39°50' W 073°03'0 0.6
2017-Jun-21 16:28N 39°50' W 073°03'0 0.5
2017-Jun-21 16:01N 39°50' W 073°03'0 0.4
2017-Jun-21 15:30N 39°50' W 073°04'0 0.5
2017-Jun-21 15:00N 39°50' W 073°04'0 0.6
2017-Jun-21 14:31N 39°50' W 073°04'6 6.0
2017-Jun-21 13:30N 39°54' W 073°10'611.5
2017-Jun-21 13:01N 39°57' W 073°16'611.8
2017-Jun-21 12:31N 40°02' W 073°21'611.6
2017-Jun-21 12:01N 40°06' W 073°26'611.7
2017-Jun-21 11:31N 40°10' W 073°31'611.3
2017-Jun-21 11:01N 40°15' W 073°36'611.4
2017-Jun-21 10:30N 40°19' W 073°40'611.2
2017-Jun-21 10:01N 40°23' W 073°45'5 9.9
2017-Jun-21 09:31N 40°27' W 073°49'510.5
2017-Jun-21 09:00N 40°29' W 073°56'510.2
2017-Jun-21 08:31N 40°32' W 074°01'510.9
2017-Jun-21 08:01N 40°37' W 074°03'1 2.5
2017-Jun-21 07:30N 40°38' W 074°04'0 0.2
2017-Jun-21 06:58N 40°38' W 074°04'0 0.2
2017-Jun-21 06:28N 40°38' W 074°04'0 0.0
2017-Jun-21 05:58N 40°38' W 074°04'0 0.1
2017-Jun-21 05:28N 40°38' W 074°04'0 0.0
2017-Jun-21 04:58N 40°38' W 074°04'0 0.0
2017-Jun-21 04:28N 40°38' W 074°04'0 0.0
2017-Jun-21 03:58N 40°38' W 074°04'0 0.1
2017-Jun-21 03:28N 40°38' W 074°04'0 0.0
2017-Jun-21 02:58N 40°38' W 074°04'0 0.0
2017-Jun-21 02:28N 40°38' W 074°04'0 0.1
2017-Jun-21 01:58N 40°38' W 074°04'0 0.0
2017-Jun-21 01:28N 40°38' W 074°04'0 0.1
2017-Jun-21 00:58N 40°38' W 074°04'0 0.0
2017-Jun-21 00:28N 40°38' W 074°04'0 0.2
2017-Jun-20 23:58N 40°38' W 074°04'0 0.1
2017-Jun-20 23:28N 40°38' W 074°04'0 0.1
2017-Jun-20 22:59N 40°39' W 074°04'0 0.1
2017-Jun-20 22:29N 40°39' W 074°04'0 0.1
2017-Jun-20 21:59N 40°39' W 074°04'0 0.0
2017-Jun-20 21:29N 40°39' W 074°04'0 0.1
2017-Jun-20 20:58N 40°39' W 074°04'0 0.0
2017-Jun-20 20:28N 40°39' W 074°04'0 0.0
2017-Jun-20 19:58N 40°39' W 074°04'0 0.1
2017-Jun-20 19:26N 40°39' W 074°04'0 0.2
2017-Jun-20 18:58N 40°39' W 074°04'0 0.3
2017-Jun-20 18:28N 40°38' W 074°04'0 0.1
2017-Jun-20 17:58N 40°38' W 074°04'0 0.0
2017-Jun-20 17:28N 40°38' W 074°04'0 0.1
2017-Jun-20 16:58N 40°38' W 074°04'0 0.0
2017-Jun-20 16:29N 40°38' W 074°04'0 1.0
2017-Jun-20 16:01N 40°38' W 074°04'4 7.6
2017-Jun-20 15:31N 40°34' W 074°02'5 9.5
2017-Jun-20 15:01N 40°31' W 073°58'10 9.5
2017-Jun-20 14:00N 40°27' W 073°46'3 6.3
2017-Jun-20 13:30N 40°27' W 073°42'4 8.0
2017-Jun-20 13:00N 40°28' W 073°37'9 6.0
2017-Jun-20 11:26N 40°29' W 073°25'3 6.1
2017-Jun-20 10:59N 40°29' W 073°21'8 6.0
2017-Jun-20 09:42N 40°30' W 073°11'3 8.8
2017-Jun-20 09:23N 40°30' W 073°08'65 6.2
2017-Jun-19 22:46N 41°14' W 072°04'412.7
2017-Jun-19 22:27N 41°14' W 072°10'613.0
2017-Jun-19 22:00N 41°13' W 072°17'612.7
2017-Jun-19 21:30N 41°11' W 072°25'612.4
2017-Jun-19 21:00N 41°10' W 072°34'613.0
2017-Jun-19 20:30N 41°11' W 072°42'  
Track history (hours):
 
Tides and Currents Weather Stations Pressure Air Temp Water Temp Dewpoint Dewpoint Depression Visibility Wind Speed Wind Dir Waves Ship Positions

High Glow

Last reported at 2017-Jun-28 22:48 UTC. Time now 2017-Jun-29 07:28 UTC.
Position N 40°39' W 074°07'.

Length 180 m; draft 10 m.

Type: Ship. MMSI: 371179000.

Date/timePositionNaut miles runAvg speedWind from/ knotsBaromVisibWave heightAir tempDewpointWater temp
2017-Jun-28 22:48N 40°39' W 074°07'0 0.0
2017-Jun-28 21:42N 40°39' W 074°07'0 0.0
2017-Jun-28 21:30N 40°39' W 074°07'0 0.0
2017-Jun-28 20:51N 40°39' W 074°07'0 0.0
2017-Jun-28 20:30N 40°39' W 074°07'0 0.0
2017-Jun-28 20:00N 40°39' W 074°07'0 0.0
2017-Jun-28 19:30N 40°39' W 074°07'0 0.0
2017-Jun-28 19:00N 40°39' W 074°07'0 0.0
2017-Jun-28 18:30N 40°39' W 074°07'0 0.0
2017-Jun-28 18:00N 40°39' W 074°07'0 0.0
2017-Jun-28 17:30N 40°39' W 074°07'0 0.0
2017-Jun-28 17:00N 40°39' W 074°07'0 0.3
2017-Jun-28 16:30N 40°39' W 074°07'2 4.1
2017-Jun-28 16:00N 40°39' W 074°04'5 9.2
2017-Jun-28 15:31N 40°34' W 074°02'4 8.1
2017-Jun-28 15:00N 40°31' W 073°59'611.9
2017-Jun-28 14:30N 40°28' W 073°52'5 5.0
2017-Jun-28 13:30N 40°25' W 073°48'1 1.1
2017-Jun-28 13:00N 40°24' W 073°47'2 3.2
2017-Jun-28 12:29N 40°22' W 073°47'2 3.5
2017-Jun-28 12:00N 40°21' W 073°46'2 3.4
2017-Jun-28 11:30N 40°19' W 073°46'2 3.2
2017-Jun-28 10:46N 40°17' W 073°46'1 3.9
2017-Jun-28 10:30N 40°16' W 073°45'30 6.1
2017-Jun-28 05:32N 39°46' W 073°41'413.2
2017-Jun-28 05:16N 39°42' W 073°42'413.2
2017-Jun-28 04:56N 39°38' W 073°43'613.2
2017-Jun-28 04:28N 39°32' W 073°45'813.5
2017-Jun-28 03:54N 39°25' W 073°47'513.5
2017-Jun-28 03:30N 39°19' W 073°48'6610.7
2017-Jun-27 21:20N 38°47' W 075°03'411.3
2017-Jun-27 21:00N 38°51' W 075°05'612.8
2017-Jun-27 20:31N 38°57' W 075°06'714.5
2017-Jun-27 20:01N 39°03' W 075°10'713.8
2017-Jun-27 19:30N 39°09' W 075°15'713.0
2017-Jun-27 19:00N 39°15' W 075°19'612.2
2017-Jun-27 18:30N 39°19' W 075°24'611.7
2017-Jun-27 18:00N 39°24' W 075°29'510.9
2017-Jun-27 17:30N 39°28' W 075°34'5 9.6
2017-Jun-27 17:00N 39°33' W 075°33'4 8.7
2017-Jun-27 16:30N 39°37' W 075°35'5 9.1
2017-Jun-27 16:01N 39°41' W 075°31'5 9.8
2017-Jun-27 15:30N 39°45' W 075°29'5 9.5
2017-Jun-27 15:00N 39°48' W 075°25'1 0.5
2017-Jun-27 14:00N 39°49' W 075°24'0 0.0
2017-Jun-27 13:30N 39°49' W 075°24'0 0.0
2017-Jun-27 13:00N 39°49' W 075°24'0 0.0
2017-Jun-27 12:30N 39°49' W 075°24'0 0.0
2017-Jun-27 12:00N 39°49' W 075°24'0 0.0
2017-Jun-27 11:30N 39°49' W 075°24'0 0.0
2017-Jun-27 11:00N 39°49' W 075°24'0 0.0
2017-Jun-27 10:27N 39°49' W 075°24'0 0.0
2017-Jun-27 10:00N 39°49' W 075°24'0 0.0
2017-Jun-27 09:30N 39°49' W 075°24'0 0.0
2017-Jun-27 09:00N 39°49' W 075°24'0 0.0
2017-Jun-27 08:30N 39°49' W 075°24'0 0.0
2017-Jun-27 08:00N 39°49' W 075°24'0 0.0
2017-Jun-27 07:27N 39°49' W 075°24'0 0.0
2017-Jun-27 06:54N 39°49' W 075°24'0 0.0
2017-Jun-27 06:30N 39°49' W 075°24'0 0.0
2017-Jun-27 05:57N 39°49' W 075°24'0 0.0
2017-Jun-27 05:29N 39°49' W 075°24'0 0.0
2017-Jun-27 05:00N 39°49' W 075°24'0 0.0
2017-Jun-27 04:30N 39°49' W 075°24'0 0.0
2017-Jun-27 04:00N 39°49' W 075°24'0 0.0
2017-Jun-27 03:30N 39°49' W 075°24'0 0.0
2017-Jun-27 02:57N 39°49' W 075°24'0 0.0
2017-Jun-27 02:30N 39°49' W 075°24'0 0.0
2017-Jun-27 02:00N 39°49' W 075°24'0 0.0
2017-Jun-27 01:30N 39°49' W 075°24'0 0.0
2017-Jun-27 01:00N 39°49' W 075°24'0 0.0
2017-Jun-27 00:30N 39°49' W 075°24'0 0.0
2017-Jun-27 00:00N 39°49' W 075°24'0 0.0
2017-Jun-26 23:30N 39°49' W 075°24'0 0.0
2017-Jun-26 23:00N 39°49' W 075°24'0 0.0
2017-Jun-26 22:30N 39°49' W 075°24'0 0.0
2017-Jun-26 22:00N 39°49' W 075°24'0 0.0
2017-Jun-26 21:30N 39°49' W 075°24'0 0.0
2017-Jun-26 21:00N 39°49' W 075°24'0 0.0
2017-Jun-26 20:30N 39°49' W 075°24'0 0.0
2017-Jun-26 20:00N 39°49' W 075°24'0 0.0
2017-Jun-26 19:30N 39°49' W 075°24'0 0.0
2017-Jun-26 19:00N 39°49' W 075°24'0 0.0
2017-Jun-26 18:30N 39°49' W 075°24'0 0.0
2017-Jun-26 18:00N 39°49' W 075°24'0 0.0
2017-Jun-26 17:30N 39°49' W 075°24'0 0.0
2017-Jun-26 17:00N 39°49' W 075°24'0 0.0
2017-Jun-26 16:30N 39°49' W 075°24'0 0.0
2017-Jun-26 16:00N 39°49' W 075°24'0 0.0
2017-Jun-26 15:30N 39°49' W 075°24'0 0.0
2017-Jun-26 15:00N 39°49' W 075°24'0 0.0
2017-Jun-26 14:30N 39°49' W 075°24'0 0.0
2017-Jun-26 13:30N 39°49' W 075°24'0 0.0
2017-Jun-26 12:54N 39°49' W 075°24'0 0.0
2017-Jun-26 12:30N 39°49' W 075°24'0 0.0
2017-Jun-26 11:57N 39°49' W 075°24'0 0.0
2017-Jun-26 11:30N 39°49' W 075°24'0 0.0
2017-Jun-26 10:57N 39°49' W 075°24'0 0.0
2017-Jun-26 10:30N 39°49' W 075°24'0 0.0
2017-Jun-26 10:00N 39°49' W 075°24'0 0.0
2017-Jun-26 09:30N 39°49' W 075°24'0 0.0
2017-Jun-26 09:00N 39°49' W 075°24'0 0.0
2017-Jun-26 08:30N 39°49' W 075°24'0 0.0
2017-Jun-26 08:00N 39°49' W 075°24'0 0.0
2017-Jun-26 07:30N 39°49' W 075°24'0 0.0
2017-Jun-26 07:00N 39°49' W 075°24'0 0.0
2017-Jun-26 06:30N 39°49' W 075°24'0 0.0
2017-Jun-26 06:00N 39°49' W 075°24'0 0.0
2017-Jun-26 05:30N 39°49' W 075°24'0 0.0
2017-Jun-26 05:00N 39°49' W 075°24'0 0.0
2017-Jun-26 04:27N 39°49' W 075°24'0 0.0
2017-Jun-26 04:00N 39°49' W 075°24'0 0.0
2017-Jun-26 03:30N 39°49' W 075°24'0 0.0
2017-Jun-26 03:00N 39°49' W 075°24'0 0.0
2017-Jun-26 02:30N 39°49' W 075°24'0 0.0
2017-Jun-26 02:00N 39°49' W 075°24'0 0.0
2017-Jun-26 01:30N 39°49' W 075°24'0 0.0
2017-Jun-26 01:00N 39°49' W 075°24'0 0.0
2017-Jun-26 00:30N 39°49' W 075°24'0 0.0
2017-Jun-26 00:00N 39°49' W 075°24'0 0.0
2017-Jun-25 23:30N 39°49' W 075°24'0 0.0
2017-Jun-25 23:00N 39°49' W 075°24'0 0.0
2017-Jun-25 22:30N 39°49' W 075°24'0 0.0
2017-Jun-25 22:00N 39°49' W 075°24'0 0.0
2017-Jun-25 21:30N 39°49' W 075°24'0 0.0
2017-Jun-25 21:00N 39°49' W 075°24'0 0.0
2017-Jun-25 20:30N 39°49' W 075°24'0 0.0
2017-Jun-25 20:00N 39°49' W 075°24'0 0.0
2017-Jun-25 19:30N 39°49' W 075°24'0 0.0
2017-Jun-25 19:00N 39°49' W 075°24'0 0.0
2017-Jun-25 18:30N 39°49' W 075°24'0 0.0
2017-Jun-25 18:00N 39°49' W 075°24'0 0.0
2017-Jun-25 17:30N 39°49' W 075°24'0 0.0
2017-Jun-25 17:00N 39°49' W 075°24'0 0.0
2017-Jun-25 16:30N 39°49' W 075°24'0 0.0
2017-Jun-25 16:00N 39°49' W 075°24'0 0.0
2017-Jun-25 15:30N 39°49' W 075°24'0 0.0
2017-Jun-25 15:00N 39°49' W 075°24'0 0.0
2017-Jun-25 14:00N 39°49' W 075°24'0 0.0
2017-Jun-25 13:30N 39°49' W 075°24'0 0.0
2017-Jun-25 13:00N 39°49' W 075°24'0 0.0
2017-Jun-25 12:30N 39°49' W 075°24'0 0.0
2017-Jun-25 12:00N 39°49' W 075°24'0 0.0
2017-Jun-25 11:30N 39°49' W 075°24'0 0.0
2017-Jun-25 11:00N 39°49' W 075°24'0 0.0
2017-Jun-25 10:30N 39°49' W 075°24'0 0.0
2017-Jun-25 10:00N 39°49' W 075°24'0 0.7
2017-Jun-25 09:30N 39°48' W 075°24'2 4.5
2017-Jun-25 09:01N 39°47' W 075°27'4 7.4
2017-Jun-25 08:30N 39°44' W 075°30'510.2
2017-Jun-25 08:00N 39°40' W 075°32'5 9.9
2017-Jun-25 07:30N 39°35' W 075°33'611.4
2017-Jun-25 07:01N 39°29' W 075°34'611.9
2017-Jun-25 06:30N 39°24' W 075°30'612.5
2017-Jun-25 06:00N 39°19' W 075°24'612.8
2017-Jun-25 05:31N 39°15' W 075°19'612.8
2017-Jun-25 05:01N 39°09' W 075°15'712.9
2017-Jun-25 04:30N 39°03' W 075°10'612.7
2017-Jun-25 04:00N 38°58' W 075°07'613.0
2017-Jun-25 03:30N 38°52' W 075°04'5 9.8
2017-Jun-25 03:00N 38°47' W 075°01'3 5.1
2017-Jun-25 02:30N 38°48' W 074°57'2 4.3
2017-Jun-25 02:00N 38°48' W 074°55'2 4.8
2017-Jun-25 01:30N 38°48' W 074°51'3 6.2
2017-Jun-25 01:00N 38°48' W 074°47'4 7.3
2017-Jun-25 00:30N 38°48' W 074°43'4 7.5
2017-Jun-25 00:00N 38°49' W 074°38'4 8.3
2017-Jun-24 23:29N 38°49' W 074°32'121 3.2
2017-Jun-23 10:02N 39°55' W 072°22'0 0.3
2017-Jun-23 08:26N 39°55' W 072°22'5 0.6
2017-Jun-23 00:05N 39°54' W 072°28'0 1.0
2017-Jun-23 00:00N 39°54' W 072°28'1 1.1
2017-Jun-22 23:25N 39°53' W 072°29'1 0.9
2017-Jun-22 21:58N 39°52' W 072°30'0 0.9
2017-Jun-22 21:28N 39°52' W 072°30'0 0.9
2017-Jun-22 20:57N 39°52' W 072°31'0 0.7
2017-Jun-22 20:26N 39°51' W 072°31'0 0.8
2017-Jun-22 19:59N 39°51' W 072°31'0 0.9
2017-Jun-22 19:30N 39°50' W 072°31'0 0.8
2017-Jun-22 19:00N 39°50' W 072°31'0 0.7
2017-Jun-22 18:30N 39°50' W 072°31'1 0.6
2017-Jun-22 16:53N 39°49' W 072°30'0 0.3
2017-Jun-22 15:57N 39°49' W 072°30'0 0.0
2017-Jun-22 14:47N 39°49' W 072°30'0 0.2
2017-Jun-22 13:53N 39°49' W 072°30'0 0.2
2017-Jun-22 13:30N 39°49' W 072°30'0 0.4
2017-Jun-22 12:55N 39°49' W 072°30'1 0.5
2017-Jun-22 10:43N 39°49' W 072°32'0 0.6
2017-Jun-22 10:27N 39°49' W 072°32'0 0.6
2017-Jun-22 10:00N 39°49' W 072°32'0 0.6
2017-Jun-22 09:30N 39°49' W 072°33'0 0.5
2017-Jun-22 09:00N 39°49' W 072°33'0 0.5
2017-Jun-22 08:27N 39°49' W 072°33'2 0.7
2017-Jun-22 05:20N 39°50' W 072°36'0 1.3
2017-Jun-22 04:59N 39°50' W 072°37'1 1.4
2017-Jun-22 04:30N 39°50' W 072°38'2 1.6
2017-Jun-22 03:26N 39°50' W 072°40'1 1.9
2017-Jun-22 02:51N 39°50' W 072°41'1 2.1
2017-Jun-22 02:31N 39°51' W 072°42'1 2.2
2017-Jun-22 01:59N 39°51' W 072°44'7 2.1
2017-Jun-21 22:39N 39°52' W 072°53'0 2.0
2017-Jun-21 22:29N 39°52' W 072°53'6 1.8
2017-Jun-21 19:17N 39°52' W 073°01'1 1.5
2017-Jun-21 18:56N 39°52' W 073°01'1 1.4
2017-Jun-21 18:22N 39°52' W 073°02'1 1.4
2017-Jun-21 17:57N 39°51' W 073°03'1 1.3
2017-Jun-21 17:29N 39°51' W 073°03'0 0.8
2017-Jun-21 16:59N 39°50' W 073°03'0 0.6
2017-Jun-21 16:28N 39°50' W 073°03'0 0.5
2017-Jun-21 16:01N 39°50' W 073°03'0 0.4
2017-Jun-21 15:30N 39°50' W 073°04'0 0.5
2017-Jun-21 15:00N 39°50' W 073°04'0 0.6
2017-Jun-21 14:31N 39°50' W 073°04'6 6.0
2017-Jun-21 13:30N 39°54' W 073°10'611.5
2017-Jun-21 13:01N 39°57' W 073°16'611.8
2017-Jun-21 12:31N 40°02' W 073°21'611.6
2017-Jun-21 12:01N 40°06' W 073°26'611.7
2017-Jun-21 11:31N 40°10' W 073°31'611.3
2017-Jun-21 11:01N 40°15' W 073°36'611.4
2017-Jun-21 10:30N 40°19' W 073°40'611.2
2017-Jun-21 10:01N 40°23' W 073°45'5 9.9
2017-Jun-21 09:31N 40°27' W 073°49'510.5
2017-Jun-21 09:00N 40°29' W 073°56'510.2
2017-Jun-21 08:31N 40°32' W 074°01'510.9
2017-Jun-21 08:01N 40°37' W 074°03'1 2.5
2017-Jun-21 07:30N 40°38' W 074°04'0 0.2
2017-Jun-21 06:58N 40°38' W 074°04'0 0.2
2017-Jun-21 06:28N 40°38' W 074°04'0 0.0
2017-Jun-21 05:58N 40°38' W 074°04'0 0.1
2017-Jun-21 05:28N 40°38' W 074°04'0 0.0
2017-Jun-21 04:58N 40°38' W 074°04'0 0.0
2017-Jun-21 04:28N 40°38' W 074°04'0 0.0
2017-Jun-21 03:58N 40°38' W 074°04'0 0.1
2017-Jun-21 03:28N 40°38' W 074°04'0 0.0
2017-Jun-21 02:58N 40°38' W 074°04'0 0.0
2017-Jun-21 02:28N 40°38' W 074°04'0 0.1
2017-Jun-21 01:58N 40°38' W 074°04'0 0.0
2017-Jun-21 01:28N 40°38' W 074°04'0 0.1
2017-Jun-21 00:58N 40°38' W 074°04'0 0.0
2017-Jun-21 00:28N 40°38' W 074°04'0 0.2
2017-Jun-20 23:58N 40°38' W 074°04'0 0.1
2017-Jun-20 23:28N 40°38' W 074°04'0 0.1
2017-Jun-20 22:59N 40°39' W 074°04'0 0.1
2017-Jun-20 22:29N 40°39' W 074°04'0 0.1
2017-Jun-20 21:59N 40°39' W 074°04'0 0.0
2017-Jun-20 21:29N 40°39' W 074°04'0 0.1
2017-Jun-20 20:58N 40°39' W 074°04'0 0.0
2017-Jun-20 20:28N 40°39' W 074°04'0 0.0
2017-Jun-20 19:58N 40°39' W 074°04'0 0.1
2017-Jun-20 19:26N 40°39' W 074°04'0 0.2
2017-Jun-20 18:58N 40°39' W 074°04'0 0.3
2017-Jun-20 18:28N 40°38' W 074°04'0 0.1
2017-Jun-20 17:58N 40°38' W 074°04'0 0.0
2017-Jun-20 17:28N 40°38' W 074°04'0 0.1
2017-Jun-20 16:58N 40°38' W 074°04'0 0.0
2017-Jun-20 16:29N 40°38' W 074°04'0 1.0
2017-Jun-20 16:01N 40°38' W 074°04'4 7.6
2017-Jun-20 15:31N 40°34' W 074°02'5 9.5
2017-Jun-20 15:01N 40°31' W 073°58'10 9.5
2017-Jun-20 14:00N 40°27' W 073°46'3 6.3
2017-Jun-20 13:30N 40°27' W 073°42'4 8.0
2017-Jun-20 13:00N 40°28' W 073°37'9 6.0
2017-Jun-20 11:26N 40°29' W 073°25'3 6.1
2017-Jun-20 10:59N 40°29' W 073°21'8 6.0
2017-Jun-20 09:42N 40°30' W 073°11'3 8.8
2017-Jun-20 09:23N 40°30' W 073°08'65 6.2
2017-Jun-19 22:46N 41°14' W 072°04'412.7
2017-Jun-19 22:27N 41°14' W 072°10'613.0
2017-Jun-19 22:00N 41°13' W 072°17'612.7
2017-Jun-19 21:30N 41°11' W 072°25'612.4
2017-Jun-19 21:00N 41°10' W 072°34'613.0
2017-Jun-19 20:30N 41°11' W 072°42'  

Dump ship's entire track history